< < Back
Terminal Aerodrome Forecast


Current Version              Previous Versions:   1  2  3  4  5  6  7  8  9  

Terminal Aerodrome Forecast

028
FTUS42 KJAX 090539
TAFSSI
TAF
KSSI 090539Z 0906/1006 27010KT P6SM FEW050
     FM091400 26020G30KT P6SM SCT250
     FM092300 27012G22KT P6SM SKC=

Latest METAR

214
SAUS70 KWBC 090700 RRG
MTRSSI
METAR KSSI 090653Z AUTO 28007G14KT 10SM OVC110 08/02 A2985 RMK AO2
SLP108 T00780022 $


USA.gov is the U.S. government's official web portal to all federal, state and local government web resources and services.